Time;durP1;ratioP1;P1;durP2;ratioP2;P2;SDS_P1;SDS_P2;PMS_P1;PMS_P2;Temp;Humidity;BMP_temperature;BMP_pressure;BME280_temperature;BME280_humidity;BME280_pressure;Samples;Min_cycle;Max_cycle;Signal;HPM_P1;HPM_P2
2023/03/24 00:00:13;;;;;;;12.00;5.95;;;11.80;99.90;;;;;;6209099;23;20056;-58
2023/03/24 00:02:41;;;;;;;13.52;5.70;;;11.80;99.90;;;;;;6208858;23;20020;-58
2023/03/24 00:05:27;;;;;;;16.60;7.03;;;11.80;99.90;;;;;;6209401;23;20442;-57
2023/03/24 00:07:53;;;;;;;14.02;6.22;;;11.80;99.90;;;;;;6212075;23;20021;-57
2023/03/24 00:10:21;;;;;;;11.75;6.03;;;11.80;99.90;;;;;;6209102;23;20020;-56
2023/03/24 00:12:47;;;;;;;13.27;5.93;;;11.80;99.90;;;;;;6209300;23;20204;-58
2023/03/24 00:15:19;;;;;;;11.55;6.35;;;11.80;99.90;;;;;;6211299;23;20012;-57
2023/03/24 00:17:49;;;;;;;12.98;5.90;;;11.80;99.90;;;;;;6210565;23;20521;-56
2023/03/24 00:20:15;;;;;;;14.63;6.50;;;11.80;99.90;;;;;;6208301;23;20091;-57
2023/03/24 00:22:49;;;;;;;13.80;6.68;;;11.80;99.90;;;;;;6211286;23;20009;-56
2023/03/24 00:25:26;;;;;;;14.70;6.30;;;11.80;99.90;;;;;;6210748;23;20071;-57
2023/03/24 00:27:53;;;;;;;12.40;6.03;;;11.80;99.90;;;;;;6210564;23;20816;-57
2023/03/24 00:30:19;;;;;;;11.27;6.60;;;11.80;99.90;;;;;;6208289;23;20095;-57
2023/03/24 00:32:45;;;;;;;13.38;6.57;;;11.80;99.90;;;;;;6208990;23;20013;-58
2023/03/24 00:35:15;;;;;;;12.93;6.30;;;11.70;99.90;;;;;;6210891;23;20017;-58
2023/03/24 00:37:43;;;;;;;12.27;5.78;;;11.80;99.90;;;;;;6211273;23;20370;-57
2023/03/24 00:40:15;;;;;;;14.15;6.00;;;11.80;99.90;;;;;;6209296;23;20023;-57
2023/03/24 00:42:44;;;;;;;10.13;5.95;;;11.80;99.90;;;;;;6211209;23;20047;-56
2023/03/24 00:45:17;;;;;;;12.40;6.07;;;11.80;99.90;;;;;;6211575;23;20012;-58
2023/03/24 00:47:43;;;;;;;11.18;5.38;;;11.70;99.90;;;;;;6211282;23;20040;-57
2023/03/24 00:50:16;;;;;;;9.35;5.85;;;11.70;99.90;;;;;;6207702;23;20016;-57
2023/03/24 00:52:47;;;;;;;10.02;5.60;;;11.70;99.90;;;;;;6208915;23;20020;-57
2023/03/24 00:55:14;;;;;;;12.43;5.75;;;11.70;99.90;;;;;;6208133;23;20047;-57
2023/03/24 00:57:48;;;;;;;12.40;6.30;;;11.70;99.90;;;;;;6210130;23;20342;-58
2023/03/24 01:00:19;;;;;;;10.05;5.45;;;11.70;99.90;;;;;;6209533;23;20078;-57
2023/03/24 01:02:47;;;;;;;9.38;5.47;;;11.70;99.90;;;;;;6208502;23;20502;-58
2023/03/24 01:05:16;;;;;;;11.52;6.13;;;11.70;99.90;;;;;;6208437;23;20012;-57
2023/03/24 01:07:42;;;;;;;11.20;5.38;;;11.70;99.90;;;;;;6211076;23;20106;-58
2023/03/24 01:10:12;;;;;;;8.25;5.45;;;11.70;99.90;;;;;;6183966;23;20485;-58
2023/03/24 01:12:37;;;;;;;9.93;5.45;;;11.70;99.90;;;;;;6211173;23;20016;-58
2023/03/24 01:15:08;;;;;;;11.10;5.30;;;11.70;99.90;;;;;;6210829;23;20338;-57
2023/03/24 01:17:33;;;;;;;9.95;5.50;;;11.70;99.90;;;;;;6209115;23;20102;-57
2023/03/24 01:20:06;;;;;;;10.43;5.32;;;11.70;99.90;;;;;;6211140;23;20017;-57
2023/03/24 01:22:36;;;;;;;11.32;5.55;;;11.70;99.90;;;;;;6209124;23;20020;-56
2023/03/24 01:25:03;;;;;;;8.70;4.97;;;11.70;99.90;;;;;;6210534;23;20055;-58
2023/03/24 01:27:30;;;;;;;11.13;5.80;;;11.70;99.90;;;;;;6183374;23;20012;-58
2023/03/24 01:30:00;;;;;;;8.07;5.03;;;11.70;99.90;;;;;;6207731;23;20021;-57
2023/03/24 01:32:27;;;;;;;11.00;5.47;;;11.70;99.90;;;;;;6183919;23;20016;-57
2023/03/24 01:34:53;;;;;;;9.32;6.03;;;11.70;99.90;;;;;;6209779;23;20307;-57
2023/03/24 01:37:19;;;;;;;11.43;5.60;;;11.70;99.90;;;;;;6210806;23;20020;-58
2023/03/24 01:39:45;;;;;;;8.10;5.53;;;11.80;99.90;;;;;;6233757;23;20334;-57
2023/03/24 01:42:18;;;;;;;9.70;5.45;;;11.80;99.90;;;;;;6211221;23;20513;-57
2023/03/24 01:44:49;;;;;;;8.90;5.00;;;11.80;99.90;;;;;;6210410;23;20009;-58
2023/03/24 01:47:16;;;;;;;8.85;5.13;;;11.80;99.90;;;;;;6210417;23;20400;-58
2023/03/24 01:49:52;;;;;;;9.25;5.35;;;11.80;99.90;;;;;;6210231;23;20016;-58
2023/03/24 01:52:23;;;;;;;7.20;4.97;;;11.80;99.90;;;;;;6207268;23;20096;-57
2023/03/24 01:55:04;;;;;;;9.20;4.78;;;11.80;99.90;;;;;;6211417;23;20019;-58
2023/03/24 01:57:32;;;;;;;8.32;5.28;;;11.80;99.90;;;;;;6184581;23;20016;-58
2023/03/24 02:00:03;;;;;;;7.82;5.57;;;11.80;99.90;;;;;;6208473;23;20021;-56
2023/03/24 02:02:33;;;;;;;8.60;5.50;;;11.80;99.90;;;;;;6210815;23;20013;-57
2023/03/24 02:05:06;;;;;;;9.13;4.78;;;11.80;99.90;;;;;;6182547;23;20494;-58
2023/03/24 02:08:03;;;;;;;7.57;5.30;;;11.80;99.90;;;;;;6183044;23;20016;-57
2023/03/24 02:10:32;;;;;;;8.57;5.53;;;11.80;99.90;;;;;;6209554;23;20023;-57
2023/03/24 02:12:58;;;;;;;9.23;5.40;;;11.80;99.90;;;;;;6232853;23;20083;-57
2023/03/24 02:15:28;;;;;;;9.73;5.95;;;11.80;99.90;;;;;;6209663;23;20177;-58
2023/03/24 02:18:07;;;;;;;8.60;5.22;;;11.80;99.90;;;;;;6209729;23;20012;-58
2023/03/24 02:21:03;;;;;;;8.18;5.32;;;11.80;99.90;;;;;;6209219;23;20016;-58
2023/03/24 02:23:38;;;;;;;7.38;5.53;;;11.80;99.90;;;;;;6209312;23;20442;-56
2023/03/24 02:26:38;;;;;;;11.85;6.20;;;11.80;99.90;;;;;;6208436;23;20016;-58
2023/03/24 02:29:31;;;;;;;9.93;5.78;;;11.80;99.90;;;;;;6207790;23;20012;-58
2023/03/24 02:32:24;;;;;;;8.20;5.57;;;11.80;99.90;;;;;;6208029;23;20016;-57
2023/03/24 02:35:14;;;;;;;8.60;5.55;;;11.90;99.90;;;;;;6209800;23;20022;-57
2023/03/24 02:37:53;;;;;;;10.48;6.22;;;11.80;99.90;;;;;;6183317;23;20008;-58
2023/03/24 02:40:19;;;;;;;7.60;6.03;;;11.90;99.90;;;;;;6209259;23;20021;-56
2023/03/24 02:43:03;;;;;;;11.13;5.75;;;11.90;99.90;;;;;;6209909;23;20316;-57
2023/03/24 02:45:35;;;;;;;;;;;11.90;99.90;;;;;;6207907;23;20012;-58
2023/03/24 02:48:12;;;;;;;7.32;5.32;;;11.90;99.90;;;;;;6207849;23;20252;-57
2023/03/24 02:51:02;;;;;;;9.00;5.80;;;11.90;99.90;;;;;;6209577;23;20099;-58
2023/03/24 02:53:46;;;;;;;10.82;6.68;;;11.90;99.90;;;;;;6210415;23;20048;-57
2023/03/24 02:56:19;;;;;;;8.95;5.75;;;11.90;99.90;;;;;;6210272;23;20062;-57
2023/03/24 02:58:52;;;;;;;8.73;4.47;;;11.90;99.90;;;;;;6207596;23;20333;-57
2023/03/24 03:01:31;;;;;;;6.90;4.57;;;11.90;99.90;;;;;;6208453;23;20022;-57
2023/03/24 03:04:11;;;;;;;9.07;3.67;;;11.80;99.90;;;;;;6209752;23;20028;-58
2023/03/24 03:06:39;;;;;;;8.18;3.90;;;11.70;99.90;;;;;;6207792;23;20048;-57
2023/03/24 03:09:10;;;;;;;5.10;3.60;;;11.70;99.90;;;;;;6209169;23;20078;-57
2023/03/24 03:11:38;;;;;;;5.88;3.42;;;11.70;99.90;;;;;;6208354;23;20159;-57
2023/03/24 03:14:36;;;;;;;6.75;3.20;;;11.70;99.90;;;;;;6210383;23;20027;-57
2023/03/24 03:17:30;;;;;;;5.07;2.83;;;11.60;99.90;;;;;;6207544;23;20013;-58
2023/03/24 03:20:05;;;;;;;4.57;2.95;;;11.60;99.90;;;;;;6198872;23;20032;-57
2023/03/24 03:22:55;;;;;;;6.68;2.80;;;11.50;99.90;;;;;;6210214;23;20605;-58
2023/03/24 03:25:26;;;;;;;12.15;3.13;;;11.50;99.90;;;;;;6210784;23;20013;-57
2023/03/24 03:27:55;;;;;;;8.70;2.83;;;11.50;99.90;;;;;;6185977;23;20427;-56
2023/03/24 03:30:38;;;;;;;6.47;2.03;;;11.40;99.90;;;;;;6235492;23;20342;-58
2023/03/24 03:33:39;;;;;;;9.67;2.60;;;11.40;99.90;;;;;;6210007;23;20020;-57
2023/03/24 03:36:27;;;;;;;8.88;2.47;;;11.30;99.90;;;;;;6206040;23;20039;-58
2023/03/24 03:39:22;;;;;;;7.75;2.28;;;11.20;99.90;;;;;;6209518;23;20020;-57
2023/03/24 03:41:48;;;;;;;7.53;1.98;;;11.20;99.90;;;;;;6209766;23;20419;-57
2023/03/24 03:44:14;;;;;;;5.88;1.98;;;11.10;99.90;;;;;;6211687;23;20016;-57
2023/03/24 03:46:41;;;;;;;12.45;2.65;;;11.10;99.90;;;;;;6210294;23;20080;-57
2023/03/24 03:49:07;;;;;;;9.32;2.53;;;11.00;99.90;;;;;;6209318;23;20016;-58
2023/03/24 03:51:33;;;;;;;10.85;2.15;;;10.90;99.90;;;;;;6211806;23;20518;-56
2023/03/24 03:54:04;;;;;;;9.15;2.00;;;10.90;99.90;;;;;;6210875;23;20020;-60
2023/03/24 03:56:33;;;;;;;10.68;2.97;;;10.90;99.90;;;;;;6211202;23;20035;-60
2023/03/24 03:58:59;;;;;;;12.20;2.05;;;10.80;99.90;;;;;;6209370;23;20020;-60
2023/03/24 04:01:28;;;;;;;11.45;2.63;;;10.80;99.90;;;;;;6210868;23;20543;-60
2023/03/24 04:04:19;;;;;;;8.52;2.08;;;10.80;99.90;;;;;;6210614;23;20528;-60
2023/03/24 04:06:56;;;;;;;11.60;2.20;;;10.80;99.90;;;;;;6208564;23;20048;-59
2023/03/24 04:09:28;;;;;;;12.32;2.03;;;10.70;99.90;;;;;;6211029;23;20013;-59
2023/03/24 04:12:10;;;;;;;8.38;2.08;;;10.60;99.90;;;;;;6184854;23;20030;-60
2023/03/24 04:14:42;;;;;;;9.50;2.17;;;10.60;99.90;;;;;;6210489;23;20013;-60
2023/03/24 04:17:26;;;;;;;11.00;2.47;;;10.50;99.90;;;;;;6210032;23;20091;-60
2023/03/24 04:19:55;;;;;;;14.50;3.45;;;10.50;99.90;;;;;;6208663;23;20016;-57
2023/03/24 04:22:26;;;;;;;7.72;2.13;;;10.50;99.90;;;;;;6210154;23;20012;-60
2023/03/24 04:24:58;;;;;;;12.75;2.45;;;10.40;99.90;;;;;;6181312;23;20502;-60
2023/03/24 04:27:55;;;;;;;14.63;2.72;;;10.40;99.90;;;;;;6207177;23;20389;-60
2023/03/24 04:30:36;;;;;;;12.32;2.47;;;10.30;99.90;;;;;;6195247;23;20027;-58
2023/03/24 04:33:16;;;;;;;13.15;2.33;;;10.20;99.90;;;;;;6208806;23;20016;-59
2023/03/24 04:36:05;;;;;;;8.48;1.98;;;10.20;99.90;;;;;;6211046;23;20108;-60
2023/03/24 04:38:34;;;;;;;14.07;2.55;;;10.20;99.90;;;;;;6210584;23;20093;-60
2023/03/24 04:41:01;;;;;;;13.18;2.33;;;10.10;99.90;;;;;;6209482;23;20028;-60
2023/03/24 04:43:34;;;;;;;14.52;2.70;;;10.10;99.90;;;;;;6211043;23;20091;-59
2023/03/24 04:46:02;;;;;;;15.82;2.63;;;10.10;99.90;;;;;;6210754;23;20439;-60
2023/03/24 04:48:29;;;;;;;11.55;2.55;;;10.10;99.90;;;;;;6210438;23;20096;-59
2023/03/24 04:50:56;;;;;;;12.32;2.53;;;10.00;99.90;;;;;;6210317;23;20341;-59
2023/03/24 04:53:22;;;;;;;12.70;3.53;;;10.00;99.90;;;;;;6209289;23;20110;-58
2023/03/24 04:56:24;;;;;;;13.30;2.83;;;10.00;99.90;;;;;;6183328;23;20339;-62
2023/03/24 04:58:50;;;;;;;12.32;3.10;;;9.90;99.90;;;;;;6207727;23;20398;-59
2023/03/24 05:01:16;;;;;;;12.10;2.60;;;9.90;99.90;;;;;;6210537;23;20025;-57
2023/03/24 05:03:44;;;;;;;14.23;3.38;;;9.90;99.90;;;;;;6208882;23;20076;-60
2023/03/24 05:06:11;;;;;;;11.80;2.70;;;9.90;99.90;;;;;;6208454;23;20043;-60
2023/03/24 05:08:38;;;;;;;19.90;3.08;;;9.90;99.90;;;;;;6210618;23;20349;-60
2023/03/24 05:11:04;;;;;;;17.50;3.38;;;9.90;99.90;;;;;;6210321;23;20038;-59
2023/03/24 05:13:30;;;;;;;19.73;3.95;;;9.90;99.90;;;;;;6211530;23;20142;-59
2023/03/24 05:15:57;;;;;;;14.88;3.33;;;9.90;99.90;;;;;;6211023;23;20016;-59
2023/03/24 05:18:22;;;;;;;15.25;3.00;;;9.90;99.90;;;;;;6210585;23;20027;-60
2023/03/24 05:20:48;;;;;;;12.52;2.97;;;9.90;99.90;;;;;;6210549;23;20017;-60
2023/03/24 05:23:14;;;;;;;19.13;3.60;;;9.90;99.90;;;;;;6208125;23;20407;-60
2023/03/24 05:25:40;;;;;;;11.77;3.20;;;9.90;99.90;;;;;;6210546;23;20442;-60
2023/03/24 05:28:06;;;;;;;13.80;3.40;;;9.80;99.90;;;;;;6209039;23;20449;-59
2023/03/24 05:30:32;;;;;;;17.27;3.47;;;9.90;99.90;;;;;;6208326;23;20016;-59
2023/03/24 05:32:58;;;;;;;15.45;3.72;;;9.80;99.90;;;;;;6206025;23;20024;-58
2023/03/24 05:35:24;;;;;;;16.35;3.00;;;9.80;99.90;;;;;;6209466;23;20023;-60
2023/03/24 05:37:49;;;;;;;10.80;2.97;;;9.80;99.90;;;;;;6182256;23;20051;-59
2023/03/24 05:40:16;;;;;;;19.02;3.03;;;9.70;99.90;;;;;;6207791;23;20350;-60
2023/03/24 05:42:42;;;;;;;15.25;3.25;;;9.70;99.90;;;;;;6208082;23;20191;-60
2023/03/24 05:45:09;;;;;;;16.00;3.88;;;9.70;99.90;;;;;;6234196;23;20019;-59
2023/03/24 05:47:35;;;;;;;13.63;3.10;;;9.70;99.90;;;;;;6209491;23;20071;-59
2023/03/24 05:50:01;;;;;;;15.80;3.60;;;9.70;99.90;;;;;;6209092;23;20016;-60
2023/03/24 05:52:27;;;;;;;18.13;3.38;;;9.70;99.90;;;;;;6208253;23;20047;-59
2023/03/24 05:54:52;;;;;;;13.75;2.70;;;9.70;99.90;;;;;;6209682;23;20171;-60
2023/03/24 05:57:20;;;;;;;18.15;3.95;;;9.70;99.90;;;;;;6209552;23;20454;-59
2023/03/24 05:59:45;;;;;;;12.52;2.75;;;9.60;99.90;;;;;;6208667;23;20019;-58
2023/03/24 06:02:11;;;;;;;13.88;2.75;;;9.60;99.90;;;;;;6207801;23;20568;-59
2023/03/24 06:04:37;;;;;;;17.33;2.95;;;9.60;99.90;;;;;;6208278;23;20017;-60
2023/03/24 06:07:03;;;;;;;17.10;3.08;;;9.60;99.90;;;;;;6208168;23;20095;-60
2023/03/24 06:09:34;;;;;;;19.42;3.00;;;9.60;99.90;;;;;;6208116;23;20012;-60
2023/03/24 06:12:01;;;;;;;11.77;3.47;;;9.60;99.90;;;;;;6207732;23;20016;-60
2023/03/24 06:14:28;;;;;;;17.40;2.63;;;9.60;99.90;;;;;;6210054;23;20338;-60
2023/03/24 06:16:58;;;;;;;10.00;2.55;;;9.60;99.90;;;;;;6205142;23;20028;-58
2023/03/24 06:19:29;;;;;;;21.40;3.30;;;9.60;99.90;;;;;;6207213;23;20306;-59
2023/03/24 06:22:01;;;;;;;14.73;3.03;;;9.60;99.90;;;;;;6230919;23;20041;-59
2023/03/24 06:24:28;;;;;;;18.58;3.30;;;9.60;99.90;;;;;;6181443;23;20021;-60
2023/03/24 06:27:00;;;;;;;16.05;2.95;;;9.60;99.90;;;;;;6206562;23;20047;-59
2023/03/24 06:29:28;;;;;;;20.25;3.10;;;9.70;99.90;;;;;;6209320;23;20020;-60
2023/03/24 06:31:54;;;;;;;16.85;3.30;;;9.70;99.90;;;;;;6203767;23;20027;-59
2023/03/24 06:34:21;;;;;;;14.48;2.97;;;9.70;99.90;;;;;;6182658;23;20020;-60
2023/03/24 06:36:47;;;;;;;17.92;3.42;;;9.80;99.90;;;;;;6209112;23;20016;-60
2023/03/24 06:39:13;;;;;;;15.32;2.75;;;9.70;99.90;;;;;;6209453;23;20013;-60
2023/03/24 06:41:38;;;;;;;17.58;2.75;;;9.80;99.90;;;;;;6206292;23;20021;-60
2023/03/24 06:44:04;;;;;;;19.55;3.35;;;9.80;99.90;;;;;;6208558;23;20016;-60
2023/03/24 06:46:30;;;;;;;16.27;3.05;;;9.80;99.90;;;;;;6203968;23;20044;-59
2023/03/24 06:48:56;;;;;;;13.82;3.30;;;9.80;99.90;;;;;;6207064;23;20012;-61
2023/03/24 06:51:21;;;;;;;16.23;3.25;;;9.80;99.90;;;;;;6205030;23;20017;-61
2023/03/24 06:53:47;;;;;;;21.02;3.67;;;9.80;99.90;;;;;;6205521;23;20813;-60
2023/03/24 06:56:18;;;;;;;18.48;4.13;;;9.80;99.90;;;;;;6207950;23;20490;-60
2023/03/24 06:58:44;;;;;;;19.83;3.95;;;9.80;99.90;;;;;;6207507;23;20052;-61
2023/03/24 07:01:10;;;;;;;17.58;3.25;;;9.90;99.90;;;;;;6209758;23;20016;-60
2023/03/24 07:03:37;;;;;;;15.95;4.05;;;9.90;99.90;;;;;;6206852;23;20016;-59
2023/03/24 07:06:04;;;;;;;19.02;3.53;;;10.00;99.90;;;;;;6210484;23;20025;-58
2023/03/24 07:08:31;;;;;;;17.70;3.72;;;10.00;99.90;;;;;;6209414;23;20044;-60
2023/03/24 07:10:57;;;;;;;22.08;4.05;;;10.00;99.90;;;;;;6210351;23;20016;-61
2023/03/24 07:13:23;;;;;;;20.83;4.78;;;10.00;99.90;;;;;;6210900;23;20422;-61
2023/03/24 07:15:49;;;;;;;22.45;5.68;;;10.00;99.90;;;;;;6210455;23;20016;-61
2023/03/24 07:18:14;;;;;;;26.23;5.40;;;10.10;99.90;;;;;;6205522;23;20545;-62
2023/03/24 07:20:40;;;;;;;23.55;6.03;;;10.10;99.90;;;;;;6210319;23;20028;-59
2023/03/24 07:23:07;;;;;;;29.90;7.75;;;10.10;99.90;;;;;;6208289;23;20020;-59
2023/03/24 07:25:33;;;;;;;31.15;6.25;;;10.20;99.90;;;;;;6207622;23;20020;-59
2023/03/24 07:27:58;;;;;;;18.33;4.30;;;10.20;99.90;;;;;;6209121;23;20521;-60
2023/03/24 07:30:25;;;;;;;20.70;4.13;;;10.10;99.90;;;;;;6210353;23;20071;-61
2023/03/24 07:32:53;;;;;;;21.85;5.15;;;10.20;99.90;;;;;;6183185;23;20020;-61
2023/03/24 07:35:19;;;;;;;20.80;4.22;;;10.20;99.90;;;;;;6235014;23;20450;-61
2023/03/24 07:37:45;;;;;;;25.15;4.40;;;10.20;99.90;;;;;;6207734;23;20020;-60
2023/03/24 07:40:12;;;;;;;28.15;6.50;;;10.20;99.90;;;;;;6209216;23;20013;-61
2023/03/24 07:42:41;;;;;;;26.85;6.90;;;10.30;99.90;;;;;;6211784;23;20019;-61
2023/03/24 07:45:11;;;;;;;18.20;4.93;;;10.30;99.90;;;;;;6209433;23;20057;-60
2023/03/24 07:47:38;;;;;;;28.25;5.65;;;10.30;99.90;;;;;;6208394;23;20549;-61
2023/03/24 07:50:10;;;;;;;20.27;4.57;;;10.30;99.90;;;;;;6207572;23;20443;-61
2023/03/24 07:52:41;;;;;;;27.10;4.57;;;10.30;99.90;;;;;;6209310;23;20026;-61
2023/03/24 07:55:12;;;;;;;25.98;4.55;;;10.40;99.90;;;;;;6211638;23;20040;-61
2023/03/24 07:57:40;;;;;;;28.98;4.63;;;10.40;99.90;;;;;;6208467;23;20016;-61
2023/03/24 08:00:14;;;;;;;19.77;3.90;;;10.40;99.90;;;;;;6208412;23;20028;-61
2023/03/24 08:02:41;;;;;;;22.25;4.28;;;10.50;99.90;;;;;;6210633;23;20354;-61
2023/03/24 08:05:09;;;;;;;24.27;4.93;;;10.50;99.90;;;;;;6210533;23;20013;-61
2023/03/24 08:07:35;;;;;;;20.33;4.22;;;10.50;99.90;;;;;;6211345;23;20071;-61
2023/03/24 08:10:01;;;;;;;25.85;5.00;;;10.60;99.90;;;;;;6209020;23;20023;-62
2023/03/24 08:12:27;;;;;;;23.67;4.85;;;10.60;99.90;;;;;;6209059;23;20342;-61
2023/03/24 08:14:53;;;;;;;31.88;6.93;;;10.70;99.90;;;;;;6211154;23;20013;-61
2023/03/24 08:17:19;;;;;;;22.08;5.38;;;10.70;99.90;;;;;;6211091;23;20473;-61
2023/03/24 08:19:46;;;;;;;26.50;4.47;;;10.70;99.90;;;;;;6204330;23;20020;-63
2023/03/24 08:22:12;;;;;;;28.38;5.75;;;10.80;99.90;;;;;;6209007;23;20080;-61
2023/03/24 08:24:37;;;;;;;25.52;4.80;;;10.80;99.90;;;;;;6206581;23;20059;-64
2023/03/24 08:27:06;;;;;;;25.92;5.18;;;10.90;99.90;;;;;;6205577;23;20430;-62
2023/03/24 08:29:35;;;;;;;23.15;4.32;;;10.90;99.90;;;;;;6205761;23;20063;-62
2023/03/24 08:32:01;;;;;;;26.88;4.00;;;11.00;99.90;;;;;;6206143;23;20070;-63
2023/03/24 08:34:27;;;;;;;30.48;6.35;;;11.00;99.90;;;;;;6209013;23;20017;-63
2023/03/24 08:36:53;;;;;;;23.35;4.32;;;11.00;99.90;;;;;;6207920;23;20016;-61
2023/03/24 08:39:19;;;;;;;24.92;4.63;;;11.00;99.90;;;;;;6209575;23;20017;-64
2023/03/24 08:41:46;;;;;;;16.45;3.78;;;10.90;99.90;;;;;;6210130;23;20447;-63
2023/03/24 08:44:12;;;;;;;24.75;6.07;;;11.00;99.90;;;;;;6210368;23;20049;-63
2023/03/24 08:46:38;;;;;;;24.48;4.38;;;11.00;99.90;;;;;;6208504;23;20024;-61
2023/03/24 08:49:04;;;;;;;23.15;4.28;;;11.00;99.90;;;;;;6206436;23;20383;-63
2023/03/24 08:51:31;;;;;;;28.35;6.45;;;11.00;99.90;;;;;;6207353;23;20027;-63
2023/03/24 08:53:58;;;;;;;22.13;4.78;;;11.10;99.90;;;;;;6209298;23;20017;-62
2023/03/24 08:56:24;;;;;;;24.20;4.35;;;11.10;99.90;;;;;;6208465;23;20017;-64
2023/03/24 08:58:52;;;;;;;22.88;4.68;;;11.30;99.90;;;;;;6207163;23;20057;-62
2023/03/24 09:01:19;;;;;;;21.25;5.05;;;11.40;99.90;;;;;;6182630;23;20315;-64
2023/03/24 09:03:45;;;;;;;21.05;5.03;;;11.60;99.90;;;;;;6184014;23;20458;-63
2023/03/24 09:06:12;;;;;;;22.25;4.10;;;11.60;99.90;;;;;;6207952;23;20012;-63
2023/03/24 09:08:38;;;;;;;21.92;4.38;;;11.70;99.90;;;;;;6207578;23;20078;-63
2023/03/24 09:11:04;;;;;;;22.50;4.43;;;11.80;99.90;;;;;;6207449;23;20025;-64
2023/03/24 09:13:30;;;;;;;23.52;4.80;;;11.70;99.90;;;;;;6210537;23;20534;-63
2023/03/24 09:16:01;;;;;;;17.77;3.58;;;11.50;99.90;;;;;;6233884;23;20013;-63
2023/03/24 09:18:27;;;;;;;15.85;3.92;;;11.40;99.90;;;;;;6209932;23;20016;-63
2023/03/24 09:20:53;;;;;;;18.75;4.10;;;11.50;99.90;;;;;;6181732;23;20023;-64
2023/03/24 09:23:20;;;;;;;25.90;3.63;;;11.60;99.90;;;;;;6206697;23;20731;-64
2023/03/24 09:25:49;;;;;;;22.00;3.95;;;11.40;99.90;;;;;;6210210;23;20012;-64
2023/03/24 09:28:15;;;;;;;17.88;4.22;;;11.50;99.90;;;;;;6210290;23;20012;-64
2023/03/24 09:30:41;;;;;;;21.02;4.70;;;11.60;99.90;;;;;;6181613;23;20149;-60
2023/03/24 09:33:07;;;;;;;21.38;4.75;;;11.70;99.90;;;;;;6210279;23;20047;-62
2023/03/24 09:35:33;;;;;;;17.55;4.90;;;12.00;99.90;;;;;;6208767;23;20020;-64
2023/03/24 09:37:59;;;;;;;19.88;4.07;;;12.00;99.90;;;;;;6205982;23;20027;-64
2023/03/24 09:40:36;;;;;;;18.73;3.47;;;12.20;99.90;;;;;;6205460;23;20016;-63
2023/03/24 09:43:36;;;;;;;19.70;3.58;;;12.40;99.90;;;;;;6206740;23;20016;-63
2023/03/24 09:46:05;;;;;;;20.75;3.83;;;12.30;99.90;;;;;;6208513;23;20087;-64
2023/03/24 09:48:45;;;;;;;22.65;3.92;;;12.40;99.90;;;;;;6209654;23;20071;-64
2023/03/24 09:51:25;;;;;;;17.67;3.92;;;12.50;99.90;;;;;;6206976;23;20087;-60
2023/03/24 09:54:18;;;;;;;21.20;4.20;;;12.50;99.90;;;;;;6207641;23;20087;-60
2023/03/24 09:56:45;;;;;;;17.35;3.30;;;12.50;99.90;;;;;;6183530;23;20027;-60
2023/03/24 09:59:15;;;;;;;17.23;3.20;;;12.50;99.90;;;;;;6207557;23;20017;-63
2023/03/24 10:01:41;;;;;;;16.77;4.03;;;12.50;99.90;;;;;;6203344;23;20021;-63
2023/03/24 10:04:15;;;;;;;21.30;3.63;;;12.30;99.90;;;;;;6205502;23;20111;-61
2023/03/24 10:06:42;;;;;;;15.82;3.47;;;12.40;99.90;;;;;;6205142;23;20018;-60
2023/03/24 10:09:28;;;;;;;20.25;3.58;;;12.30;99.90;;;;;;6206687;23;20087;-63
2023/03/24 10:12:32;;;;;;;15.80;3.15;;;12.30;99.90;;;;;;6203266;23;20012;-62
2023/03/24 10:15:28;;;;;;;23.37;5.27;;;12.50;99.90;;;;;;6183791;23;20020;-63
2023/03/24 10:18:09;;;;;;;17.92;3.85;;;12.60;99.90;;;;;;6205163;23;20726;-59
2023/03/24 10:20:53;;;;;;;22.08;4.22;;;12.70;99.90;;;;;;6207232;23;20020;-62
2023/03/24 10:23:25;;;;;;;14.23;3.28;;;12.80;99.90;;;;;;6205436;23;20023;-60
2023/03/24 10:26:50;;;;;;;14.35;4.00;;;13.00;99.90;;;;;;6206326;23;20019;-60
2023/03/24 10:29:34;;;;;;;19.35;3.83;;;13.20;99.90;;;;;;6115212;23;20092;-57
2023/03/24 10:32:23;;;;;;;22.65;4.32;;;13.30;99.90;;;;;;6113969;23;20083;-62
2023/03/24 10:34:56;;;;;;;20.65;3.63;;;13.30;99.90;;;;;;6183084;23;20020;-61
2023/03/24 10:37:22;;;;;;;17.50;3.78;;;13.30;99.90;;;;;;6207315;23;20027;-59
2023/03/24 10:39:48;;;;;;;17.05;2.90;;;13.30;99.90;;;;;;6207501;23;20805;-61
2023/03/24 10:42:23;;;;;;;16.30;3.47;;;13.40;99.90;;;;;;6207292;23;20023;-59
2023/03/24 10:44:51;;;;;;;16.58;3.75;;;13.50;99.90;;;;;;6209730;23;20012;-58
2023/03/24 10:47:22;;;;;;;15.98;4.15;;;13.60;99.90;;;;;;6207775;23;20009;-59
2023/03/24 10:49:59;;;;;;;22.30;3.90;;;13.60;99.90;;;;;;6208170;23;20541;-60
2023/03/24 10:52:27;;;;;;;19.38;4.82;;;13.30;99.90;;;;;;6209243;23;20084;-62
2023/03/24 10:55:02;;;;;;;21.10;3.47;;;13.30;99.90;;;;;;6207505;23;20271;-59
2023/03/24 10:57:29;;;;;;;21.02;4.18;;;13.20;99.90;;;;;;6207715;23;20056;-58
2023/03/24 11:00:17;;;;;;;14.98;3.40;;;13.20;99.90;;;;;;6206015;23;20021;-59
2023/03/24 11:02:43;;;;;;;20.95;5.07;;;13.40;99.90;;;;;;6207706;23;20560;-60
2023/03/24 11:05:18;;;;;;;21.35;4.38;;;13.70;99.90;;;;;;6183383;23;20027;-61
2023/03/24 11:07:47;;;;;;;20.17;4.60;;;13.90;99.90;;;;;;6208267;23;20044;-58
2023/03/24 11:10:30;;;;;;;13.88;3.47;;;14.10;99.90;;;;;;6207605;23;20012;-59
2023/03/24 11:12:56;;;;;;;18.73;3.65;;;14.00;99.90;;;;;;6230110;23;20099;-57
2023/03/24 11:15:27;;;;;;;18.02;4.45;;;14.10;99.90;;;;;;6207416;23;20020;-59
2023/03/24 11:18:17;;;;;;;16.88;3.83;;;14.20;99.90;;;;;;6207663;23;20074;-59
2023/03/24 11:20:45;;;;;;;17.67;4.07;;;14.20;99.90;;;;;;6182098;23;20755;-57
2023/03/24 11:23:18;;;;;;;22.98;5.22;;;13.90;99.90;;;;;;6208786;23;20519;-62
2023/03/24 11:26:12;;;;;;;14.38;3.20;;;13.70;99.90;;;;;;6206437;23;20012;-56
2023/03/24 11:28:46;;;;;;;14.53;3.63;;;13.80;99.90;;;;;;6206349;23;20016;-60
2023/03/24 11:31:23;;;;;;;18.98;3.95;;;13.80;99.90;;;;;;6207881;23;20183;-59
2023/03/24 11:34:24;;;;;;;14.35;3.28;;;14.00;99.90;;;;;;6206592;23;20086;-63
2023/03/24 11:36:57;;;;;;;18.73;3.95;;;14.20;99.90;;;;;;6207447;23;20501;-60
2023/03/24 11:39:25;;;;;;;14.73;3.20;;;14.40;99.90;;;;;;6205563;23;20103;-58
2023/03/24 11:42:00;;;;;;;13.55;2.90;;;14.50;99.90;;;;;;6180426;23;20466;-62
2023/03/24 11:44:29;;;;;;;13.05;2.65;;;14.50;99.90;;;;;;6207667;23;20012;-58
2023/03/24 11:46:58;;;;;;;16.20;3.28;;;14.10;99.90;;;;;;6209030;23;20085;-61
2023/03/24 11:49:29;;;;;;;12.70;3.33;;;14.10;99.90;;;;;;6207108;23;20020;-58
2023/03/24 11:51:55;;;;;;;14.80;2.75;;;14.00;99.90;;;;;;6206382;23;20025;-63
2023/03/24 11:54:28;;;;;;;13.43;3.33;;;14.00;99.90;;;;;;6208348;23;20454;-60
2023/03/24 11:56:57;;;;;;;12.35;3.10;;;14.20;99.90;;;;;;6209536;23;20059;-60
2023/03/24 11:59:47;;;;;;;13.10;2.78;;;14.20;99.90;;;;;;6209241;23;20168;-61
2023/03/24 12:03:00;;;;;;;16.27;2.95;;;14.20;99.90;;;;;;6205493;23;20442;-60
2023/03/24 12:06:09;;;;;;;16.10;3.30;;;14.20;99.90;;;;;;6207592;23;20008;-61
2023/03/24 12:09:00;;;;;;;18.00;3.47;;;14.30;99.90;;;;;;6226474;23;20017;-59
2023/03/24 12:11:37;;;;;;;12.80;3.17;;;14.40;99.90;;;;;;6195900;23;20066;-60
2023/03/24 12:14:04;;;;;;;17.85;3.50;;;14.50;99.90;;;;;;6208508;23;20016;-60
2023/03/24 12:16:49;;;;;;;16.95;3.05;;;14.80;99.90;;;;;;6208921;23;20163;-59
2023/03/24 12:19:34;;;;;;;15.68;3.08;;;14.90;99.90;;;;;;6209836;23;20019;-61
2023/03/24 12:22:21;;;;;;;17.30;3.50;;;14.90;99.90;;;;;;6208793;23;20017;-60
2023/03/24 12:25:26;;;;;;;17.13;3.33;;;14.90;99.90;;;;;;6208644;23;20024;-61
2023/03/24 12:27:52;;;;;;;;;;;15.10;99.90;;;;;;6173487;23;20638;-62
2023/03/24 12:30:44;;;;;;;15.07;3.28;;;15.20;99.90;;;;;;6177596;23;19924;-62
2023/03/24 12:33:32;;;;;;;13.02;3.72;;;15.40;99.90;;;;;;6198333;23;20028;-58
2023/03/24 12:36:10;;;;;;;15.50;3.75;;;15.40;99.90;;;;;;6234096;23;20076;-60
2023/03/24 12:39:04;;;;;;;13.68;3.42;;;15.40;99.90;;;;;;6209301;23;20013;-59
2023/03/24 12:41:36;;;;;;;13.18;2.83;;;15.00;99.90;;;;;;6211995;23;20087;-62
2023/03/24 12:44:32;;;;;;;14.70;2.97;;;15.00;99.90;;;;;;6207670;23;20017;-59
2023/03/24 12:47:26;;;;;;;18.77;3.70;;;15.10;99.90;;;;;;6207813;23;20023;-59
2023/03/24 12:50:16;;;;;;;13.37;3.20;;;15.10;99.90;;;;;;6210894;23;20020;-60
2023/03/24 12:52:45;;;;;;;15.60;2.55;;;15.10;99.30;;;;;;6209881;23;20267;-63
2023/03/24 12:55:48;;;;;;;14.88;3.05;;;15.20;99.70;;;;;;6210359;23;20299;-60
2023/03/24 12:58:23;;;;;;;13.43;3.85;;;15.20;99.90;;;;;;6191031;23;20533;-59
2023/03/24 13:01:10;;;;;;;12.13;2.80;;;15.20;99.80;;;;;;6209731;23;20017;-62
2023/03/24 13:03:52;;;;;;;17.23;3.45;;;15.30;99.90;;;;;;6209049;23;20016;-59
2023/03/24 13:06:24;;;;;;;14.15;2.90;;;15.40;99.20;;;;;;6209887;23;20071;-62
2023/03/24 13:09:32;;;;;;;14.90;2.97;;;15.40;99.30;;;;;;6210065;23;20150;-60